North Central West Virginia Airport
KCKB : now visible

Airfield :











YOU CAN JOIN US ON...

 
LOGIN :

Register | Disclaimer

   EN    FR    IT 

 









Legend :    VFR   Marginal VFR   IFR   Intensive IFR   Very Intensive IFR
Visi :
Ceiling :
>= 8 km
>= 3000ft
5 to 8 km
1000 to 3000 ft
1500m to 5 km
500 to 1000 ft
800 to 1500m
200 to 500 ft
< 800m
< 200 ft
Symbols :   Thunderstorms  Fog  Heavy snow  Heavy precipitations  Wind > 20 kt






- Airport Elevation : 1217 ft
- IATA code : CKB


KCKB - North Central West Virginia

CURRENT METAR :
  • 221153Z AUTO 00000KT 1/4SM FG VV001 09/09 A3023 RMK AO2 SLP232 T00890089 10128 20083 53006 TSNO RVRNO

EXPIRED METARs :
  • 221135Z AUTO 00000KT 1/4SM FG VV001 09/09 A3023 RMK AO2 T00890089 TSNO RVRNO
  • 221053Z AUTO 00000KT 1/4SM FG VV002 09/09 A3022 RMK AO2 SLP227 T00940089 TSNO RVRNO
  • 221041Z AUTO 00000KT 3/4SM BR VV002 09/09 A3022 RMK AO2 T00940089 TSNO RVRNO
  • 221037Z AUTO 00000KT 1 1/4SM BR FEW002 09/09 A3022 RMK AO2 T00890089 TSNO
  • 221027Z AUTO 00000KT 1/4SM FG VV002 09/09 A3022 RMK AO2 T00940089 TSNO RVRNO
  • 221018Z AUTO 00000KT 1 1/2SM BR CLR 09/09 A3022 RMK AO2 VIS 1/2V5 T00940089 TSNO
  • 220953Z AUTO 00000KT 8SM CLR 09/09 A3022 RMK AO2 SLP224 T00940089 TSNO
  • 220924Z AUTO 00000KT 7SM CLR 10/10 A3022 RMK AO2 T01000100 TSNO
  • 220916Z AUTO 00000KT 2SM BR CLR 11/10 A3021 RMK AO2 T01060100 TSNO
  • 220900Z AUTO 00000KT 1/4SM FG CLR 10/10 A3021 RMK AO2 T01000100 TSNO RVRNO

TAF KCKB
Valid from the 22 at 12:00 until the 23 at 12:00 UTC


221132Z 2212/2312 00000KT 1SM BR BKN001
TEMPO 2212/2213 4SM BR SCT001
FM221400 21004KT P6SM SKC
FM222100 24004KT P6SM SKC
FM230900 00000KT 5SM BR FEW200
KZOB FIR / North America



MET'MAP, your aeronautical weather chart ! - Copyright ORBIFLY December 2007 - Disclaimer

ORBIFLY MET'MAP TEAM :

Programming & Development : Alexandra Zaïnal
Concept & original design : Baudouin d'Aumeries
Assistance for programming : Marc-Olivier Méhu
Technical & hardware support : Manuel Goepfert

Contact : metmap@orbifly.com




SOURCES & CREDITS :

   NOAA       Earth
Advisory